sensor_id;sensor_type;location;lat;lon;timestamp;temperature;humidity
17333;DHT22;8784;50.94667800;7.08448400;2023-06-01T00:02:02;18.50;64.50
17333;DHT22;8784;50.94667800;7.08448400;2023-06-01T00:04:30;18.40;64.70
17333;DHT22;8784;50.94667800;7.08448400;2023-06-01T00:06:57;18.40;64.90
17333;DHT22;8784;50.94667800;7.08448400;2023-06-01T00:09:27;18.30;65.00
17333;DHT22;8784;50.94667800;7.08448400;2023-06-01T00:11:54;18.30;65.30
17333;DHT22;8784;50.94667800;7.08448400;2023-06-01T00:14:21;18.20;65.40
17333;DHT22;8784;50.94667800;7.08448400;2023-06-01T00:16:47;18.20;65.60
17333;DHT22;8784;50.94667800;7.08448400;2023-06-01T00:19:14;18.10;65.70
17333;DHT22;8784;50.94667800;7.08448400;2023-06-01T00:21:42;18.00;65.90
17333;DHT22;8784;50.94667800;7.08448400;2023-06-01T00:24:09;18.00;66.20
17333;DHT22;8784;50.94667800;7.08448400;2023-06-01T00:26:36;18.00;66.30
17333;DHT22;8784;50.94667800;7.08448400;2023-06-01T00:29:03;18.00;66.40
17333;DHT22;8784;50.94667800;7.08448400;2023-06-01T00:31:30;17.90;66.50
17333;DHT22;8784;50.94667800;7.08448400;2023-06-01T00:33:57;17.90;66.80
17333;DHT22;8784;50.94667800;7.08448400;2023-06-01T00:36:24;17.80;66.80
17333;DHT22;8784;50.94667800;7.08448400;2023-06-01T00:38:52;17.80;67.00
17333;DHT22;8784;50.94667800;7.08448400;2023-06-01T00:41:20;17.80;67.10
17333;DHT22;8784;50.94667800;7.08448400;2023-06-01T00:43:47;17.70;67.30
17333;DHT22;8784;50.94667800;7.08448400;2023-06-01T00:46:14;17.70;67.50
17333;DHT22;8784;50.94667800;7.08448400;2023-06-01T00:48:41;17.60;68.00
17333;DHT22;8784;50.94667800;7.08448400;2023-06-01T00:51:08;17.50;68.20
17333;DHT22;8784;50.94667800;7.08448400;2023-06-01T00:53:37;17.50;68.50
17333;DHT22;8784;50.94667800;7.08448400;2023-06-01T00:56:05;17.40;68.50
17333;DHT22;8784;50.94667800;7.08448400;2023-06-01T00:58:32;17.40;68.80
17333;DHT22;8784;50.94667800;7.08448400;2023-06-01T01:00:59;17.40;68.90
17333;DHT22;8784;50.94667800;7.08448400;2023-06-01T01:03:26;17.40;69.00
17333;DHT22;8784;50.94667800;7.08448400;2023-06-01T01:06:13;17.30;69.30
17333;DHT22;8784;50.94667800;7.08448400;2023-06-01T01:08:56;17.30;69.40
17333;DHT22;8784;50.94667800;7.08448400;2023-06-01T01:11:36;17.30;69.50
17333;DHT22;8784;50.94667800;7.08448400;2023-06-01T01:14:08;17.20;69.80
17333;DHT22;8784;50.94667800;7.08448400;2023-06-01T01:16:42;17.20;70.00
17333;DHT22;8784;50.94667800;7.08448400;2023-06-01T01:19:22;17.20;70.20
17333;DHT22;8784;50.94667800;7.08448400;2023-06-01T01:22:07;17.10;70.50
17333;DHT22;8784;50.94667800;7.08448400;2023-06-01T01:24:46;17.00;70.80
17333;DHT22;8784;50.94667800;7.08448400;2023-06-01T01:27:24;17.00;70.90
17333;DHT22;8784;50.94667800;7.08448400;2023-06-01T01:30:02;17.00;71.10
17333;DHT22;8784;50.94667800;7.08448400;2023-06-01T01:32:32;16.90;71.20
17333;DHT22;8784;50.94667800;7.08448400;2023-06-01T01:35:02;16.90;71.40
17333;DHT22;8784;50.94667800;7.08448400;2023-06-01T01:37:32;16.90;71.50
17333;DHT22;8784;50.94667800;7.08448400;2023-06-01T01:39:59;16.80;71.60
17333;DHT22;8784;50.94667800;7.08448400;2023-06-01T01:42:27;16.80;71.80
17333;DHT22;8784;50.94667800;7.08448400;2023-06-01T01:44:54;16.80;71.90
17333;DHT22;8784;50.94667800;7.08448400;2023-06-01T01:47:30;16.80;72.10
17333;DHT22;8784;50.94667800;7.08448400;2023-06-01T01:50:01;16.80;72.20
17333;DHT22;8784;50.94667800;7.08448400;2023-06-01T01:52:33;16.70;72.30
17333;DHT22;8784;50.94667800;7.08448400;2023-06-01T01:55:01;16.70;72.50
17333;DHT22;8784;50.94667800;7.08448400;2023-06-01T01:57:29;16.60;72.60
17333;DHT22;8784;50.94667800;7.08448400;2023-06-01T01:59:58;16.60;72.80
17333;DHT22;8784;50.94667800;7.08448400;2023-06-01T02:02:27;16.60;72.90
17333;DHT22;8784;50.94667800;7.08448400;2023-06-01T02:04:54;16.50;73.20
17333;DHT22;8784;50.94667800;7.08448400;2023-06-01T02:07:22;16.50;73.50
17333;DHT22;8784;50.94667800;7.08448400;2023-06-01T02:09:49;16.50;74.00
17333;DHT22;8784;50.94667800;7.08448400;2023-06-01T02:12:16;16.40;73.90
17333;DHT22;8784;50.94667800;7.08448400;2023-06-01T02:14:43;16.40;74.00
17333;DHT22;8784;50.94667800;7.08448400;2023-06-01T02:17:10;16.30;74.20
17333;DHT22;8784;50.94667800;7.08448400;2023-06-01T02:19:38;16.30;74.40
17333;DHT22;8784;50.94667800;7.08448400;2023-06-01T02:22:05;16.30;74.60
17333;DHT22;8784;50.94667800;7.08448400;2023-06-01T02:24:32;16.20;74.70
17333;DHT22;8784;50.94667800;7.08448400;2023-06-01T02:26:59;16.20;74.90
17333;DHT22;8784;50.94667800;7.08448400;2023-06-01T02:29:26;16.20;75.00
17333;DHT22;8784;50.94667800;7.08448400;2023-06-01T02:31:53;16.20;75.30
17333;DHT22;8784;50.94667800;7.08448400;2023-06-01T02:34:20;16.10;75.20
17333;DHT22;8784;50.94667800;7.08448400;2023-06-01T02:36:48;16.10;75.40
17333;DHT22;8784;50.94667800;7.08448400;2023-06-01T02:39:15;16.00;75.90
17333;DHT22;8784;50.94667800;7.08448400;2023-06-01T02:41:43;15.90;76.10
17333;DHT22;8784;50.94667800;7.08448400;2023-06-01T02:44:10;15.90;76.30
17333;DHT22;8784;50.94667800;7.08448400;2023-06-01T02:46:36;15.80;76.50
17333;DHT22;8784;50.94667800;7.08448400;2023-06-01T02:49:03;15.80;76.90
17333;DHT22;8784;50.94667800;7.08448400;2023-06-01T02:51:30;15.80;77.20
17333;DHT22;8784;50.94667800;7.08448400;2023-06-01T02:53:59;15.80;77.20
17333;DHT22;8784;50.94667800;7.08448400;2023-06-01T02:56:26;15.70;77.30
17333;DHT22;8784;50.94667800;7.08448400;2023-06-01T02:58:53;15.70;77.70
17333;DHT22;8784;50.94667800;7.08448400;2023-06-01T03:01:20;15.60;77.70
17333;DHT22;8784;50.94667800;7.08448400;2023-06-01T03:03:47;15.60;78.20
17333;DHT22;8784;50.94667800;7.08448400;2023-06-01T03:06:14;15.60;78.50
17333;DHT22;8784;50.94667800;7.08448400;2023-06-01T03:08:43;15.60;78.40
17333;DHT22;8784;50.94667800;7.08448400;2023-06-01T03:11:12;15.50;78.60
17333;DHT22;8784;50.94667800;7.08448400;2023-06-01T03:13:39;15.50;78.90
17333;DHT22;8784;50.94667800;7.08448400;2023-06-01T03:16:06;15.40;79.20
17333;DHT22;8784;50.94667800;7.08448400;2023-06-01T03:18:33;15.40;79.30
17333;DHT22;8784;50.94667800;7.08448400;2023-06-01T03:21:00;15.40;79.50
17333;DHT22;8784;50.94667800;7.08448400;2023-06-01T03:23:27;15.40;79.60
17333;DHT22;8784;50.94667800;7.08448400;2023-06-01T03:25:55;15.30;79.70
17333;DHT22;8784;50.94667800;7.08448400;2023-06-01T03:28:24;15.20;79.80
17333;DHT22;8784;50.94667800;7.08448400;2023-06-01T03:30:51;15.30;80.60
17333;DHT22;8784;50.94667800;7.08448400;2023-06-01T03:33:18;15.30;80.30
17333;DHT22;8784;50.94667800;7.08448400;2023-06-01T03:35:44;15.30;80.40
17333;DHT22;8784;50.94667800;7.08448400;2023-06-01T03:38:11;15.30;80.50
17333;DHT22;8784;50.94667800;7.08448400;2023-06-01T03:40:39;15.30;80.50
17333;DHT22;8784;50.94667800;7.08448400;2023-06-01T03:43:06;15.30;80.90
17333;DHT22;8784;50.94667800;7.08448400;2023-06-01T03:45:34;15.20;81.10
17333;DHT22;8784;50.94667800;7.08448400;2023-06-01T03:48:01;15.20;81.20
17333;DHT22;8784;50.94667800;7.08448400;2023-06-01T03:50:28;15.20;81.50
17333;DHT22;8784;50.94667800;7.08448400;2023-06-01T03:52:55;15.20;82.40
17333;DHT22;8784;50.94667800;7.08448400;2023-06-01T03:55:22;15.20;82.00
17333;DHT22;8784;50.94667800;7.08448400;2023-06-01T03:57:49;15.20;82.30
17333;DHT22;8784;50.94667800;7.08448400;2023-06-01T04:00:16;15.20;82.40
17333;DHT22;8784;50.94667800;7.08448400;2023-06-01T04:02:51;15.20;82.80
17333;DHT22;8784;50.94667800;7.08448400;2023-06-01T04:05:19;15.20;83.10
17333;DHT22;8784;50.94667800;7.08448400;2023-06-01T04:07:52;15.20;84.20
17333;DHT22;8784;50.94667800;7.08448400;2023-06-01T04:10:20;15.20;83.70
17333;DHT22;8784;50.94667800;7.08448400;2023-06-01T04:12:48;15.20;84.00
17333;DHT22;8784;50.94667800;7.08448400;2023-06-01T04:15:17;15.20;84.30
17333;DHT22;8784;50.94667800;7.08448400;2023-06-01T04:17:44;15.20;84.70
17333;DHT22;8784;50.94667800;7.08448400;2023-06-01T04:20:15;15.20;85.00
17333;DHT22;8784;50.94667800;7.08448400;2023-06-01T04:22:43;15.20;85.20
17333;DHT22;8784;50.94667800;7.08448400;2023-06-01T04:25:12;15.20;85.50
17333;DHT22;8784;50.94667800;7.08448400;2023-06-01T04:27:44;15.20;85.80
17333;DHT22;8784;50.94667800;7.08448400;2023-06-01T04:30:11;15.20;86.10
17333;DHT22;8784;50.94667800;7.08448400;2023-06-01T04:32:39;15.20;86.40
17333;DHT22;8784;50.94667800;7.08448400;2023-06-01T04:35:09;15.20;86.60
17333;DHT22;8784;50.94667800;7.08448400;2023-06-01T04:37:38;15.30;87.10
17333;DHT22;8784;50.94667800;7.08448400;2023-06-01T04:40:07;15.30;87.60
17333;DHT22;8784;50.94667800;7.08448400;2023-06-01T04:42:35;15.30;87.90
17333;DHT22;8784;50.94667800;7.08448400;2023-06-01T04:45:04;15.30;88.20
17333;DHT22;8784;50.94667800;7.08448400;2023-06-01T04:47:34;15.30;88.50
17333;DHT22;8784;50.94667800;7.08448400;2023-06-01T04:50:04;15.40;88.80
17333;DHT22;8784;50.94667800;7.08448400;2023-06-01T04:52:31;15.40;89.10
17333;DHT22;8784;50.94667800;7.08448400;2023-06-01T04:54:59;15.40;89.40
17333;DHT22;8784;50.94667800;7.08448400;2023-06-01T04:57:26;15.50;89.50
17333;DHT22;8784;50.94667800;7.08448400;2023-06-01T04:59:53;15.50;89.90
17333;DHT22;8784;50.94667800;7.08448400;2023-06-01T05:02:22;15.50;90.00
17333;DHT22;8784;50.94667800;7.08448400;2023-06-01T05:04:50;15.60;90.00
17333;DHT22;8784;50.94667800;7.08448400;2023-06-01T05:07:17;15.60;90.10
17333;DHT22;8784;50.94667800;7.08448400;2023-06-01T05:09:44;15.60;90.00
17333;DHT22;8784;50.94667800;7.08448400;2023-06-01T05:12:12;15.70;90.00
17333;DHT22;8784;50.94667800;7.08448400;2023-06-01T05:14:39;15.80;90.10
17333;DHT22;8784;50.94667800;7.08448400;2023-06-01T05:17:06;15.80;90.20
17333;DHT22;8784;50.94667800;7.08448400;2023-06-01T05:19:33;15.90;90.20
17333;DHT22;8784;50.94667800;7.08448400;2023-06-01T05:22:00;15.90;90.20
17333;DHT22;8784;50.94667800;7.08448400;2023-06-01T05:24:27;16.00;90.10
17333;DHT22;8784;50.94667800;7.08448400;2023-06-01T05:26:54;16.00;90.20
17333;DHT22;8784;50.94667800;7.08448400;2023-06-01T05:29:22;16.10;90.30
17333;DHT22;8784;50.94667800;7.08448400;2023-06-01T05:31:49;16.10;90.30
17333;DHT22;8784;50.94667800;7.08448400;2023-06-01T05:34:16;16.30;90.30
17333;DHT22;8784;50.94667800;7.08448400;2023-06-01T05:36:43;16.30;90.20
17333;DHT22;8784;50.94667800;7.08448400;2023-06-01T05:39:10;16.30;90.20
17333;DHT22;8784;50.94667800;7.08448400;2023-06-01T05:41:38;16.40;90.20
17333;DHT22;8784;50.94667800;7.08448400;2023-06-01T05:44:05;16.50;90.10
17333;DHT22;8784;50.94667800;7.08448400;2023-06-01T05:46:33;16.50;90.00
17333;DHT22;8784;50.94667800;7.08448400;2023-06-01T05:49:00;16.60;90.00
17333;DHT22;8784;50.94667800;7.08448400;2023-06-01T05:51:27;16.70;89.90
17333;DHT22;8784;50.94667800;7.08448400;2023-06-01T05:53:54;16.70;90.00
17333;DHT22;8784;50.94667800;7.08448400;2023-06-01T05:56:21;16.80;89.90
17333;DHT22;8784;50.94667800;7.08448400;2023-06-01T05:58:48;16.90;89.70
17333;DHT22;8784;50.94667800;7.08448400;2023-06-01T06:01:19;16.90;89.40
17333;DHT22;8784;50.94667800;7.08448400;2023-06-01T06:03:47;17.00;89.40
17333;DHT22;8784;50.94667800;7.08448400;2023-06-01T06:06:14;17.00;89.50
17333;DHT22;8784;50.94667800;7.08448400;2023-06-01T06:08:41;17.10;89.20
17333;DHT22;8784;50.94667800;7.08448400;2023-06-01T06:11:08;17.20;89.50
17333;DHT22;8784;50.94667800;7.08448400;2023-06-01T06:13:35;17.30;89.50
17333;DHT22;8784;50.94667800;7.08448400;2023-06-01T06:16:02;17.40;89.20
17333;DHT22;8784;50.94667800;7.08448400;2023-06-01T06:18:29;17.60;88.70
17333;DHT22;8784;50.94667800;7.08448400;2023-06-01T06:20:58;17.70;88.40
17333;DHT22;8784;50.94667800;7.08448400;2023-06-01T06:23:25;17.90;88.00
17333;DHT22;8784;50.94667800;7.08448400;2023-06-01T06:25:52;18.00;87.60
17333;DHT22;8784;50.94667800;7.08448400;2023-06-01T06:28:19;18.30;87.10
17333;DHT22;8784;50.94667800;7.08448400;2023-06-01T06:30:47;18.50;86.30
17333;DHT22;8784;50.94667800;7.08448400;2023-06-01T06:33:14;18.70;85.40
17333;DHT22;8784;50.94667800;7.08448400;2023-06-01T06:35:42;18.90;84.40
17333;DHT22;8784;50.94667800;7.08448400;2023-06-01T06:38:11;19.20;83.20
17333;DHT22;8784;50.94667800;7.08448400;2023-06-01T06:40:38;19.70;82.00
17333;DHT22;8784;50.94667800;7.08448400;2023-06-01T06:43:05;20.30;81.00
17333;DHT22;8784;50.94667800;7.08448400;2023-06-01T06:45:32;21.10;78.00
17333;DHT22;8784;50.94667800;7.08448400;2023-06-01T06:47:59;23.30;75.20
17333;DHT22;8784;50.94667800;7.08448400;2023-06-01T06:50:26;26.10;70.60
17333;DHT22;8784;50.94667800;7.08448400;2023-06-01T06:52:53;28.60;65.80
17333;DHT22;8784;50.94667800;7.08448400;2023-06-01T06:55:21;30.70;61.60
17333;DHT22;8784;50.94667800;7.08448400;2023-06-01T06:57:49;32.20;58.60
17333;DHT22;8784;50.94667800;7.08448400;2023-06-01T07:00:16;33.60;56.40
17333;DHT22;8784;50.94667800;7.08448400;2023-06-01T07:02:44;34.70;54.30
17333;DHT22;8784;50.94667800;7.08448400;2023-06-01T07:05:11;35.60;52.20
17333;DHT22;8784;50.94667800;7.08448400;2023-06-01T07:07:39;36.40;50.60
17333;DHT22;8784;50.94667800;7.08448400;2023-06-01T07:10:07;37.10;49.20
17333;DHT22;8784;50.94667800;7.08448400;2023-06-01T07:12:35;37.50;47.80
17333;DHT22;8784;50.94667800;7.08448400;2023-06-01T07:15:03;38.00;46.60
17333;DHT22;8784;50.94667800;7.08448400;2023-06-01T07:17:30;38.50;45.60
17333;DHT22;8784;50.94667800;7.08448400;2023-06-01T07:19:59;38.90;44.70
17333;DHT22;8784;50.94667800;7.08448400;2023-06-01T07:22:26;39.30;44.00
17333;DHT22;8784;50.94667800;7.08448400;2023-06-01T07:24:53;39.70;43.30
17333;DHT22;8784;50.94667800;7.08448400;2023-06-01T07:27:20;39.90;42.30
17333;DHT22;8784;50.94667800;7.08448400;2023-06-01T07:29:48;39.90;41.60
17333;DHT22;8784;50.94667800;7.08448400;2023-06-01T07:32:20;40.10;41.50
17333;DHT22;8784;50.94667800;7.08448400;2023-06-01T07:34:47;40.50;41.10
17333;DHT22;8784;50.94667800;7.08448400;2023-06-01T07:37:14;40.90;40.60
17333;DHT22;8784;50.94667800;7.08448400;2023-06-01T07:39:41;41.30;39.80
17333;DHT22;8784;50.94667800;7.08448400;2023-06-01T07:42:08;41.80;39.00
17333;DHT22;8784;50.94667800;7.08448400;2023-06-01T07:44:35;42.20;38.60
17333;DHT22;8784;50.94667800;7.08448400;2023-06-01T07:47:04;42.40;38.30
17333;DHT22;8784;50.94667800;7.08448400;2023-06-01T07:49:32;42.50;37.80
17333;DHT22;8784;50.94667800;7.08448400;2023-06-01T07:52:01;42.60;37.50
17333;DHT22;8784;50.94667800;7.08448400;2023-06-01T07:54:28;42.80;37.10
17333;DHT22;8784;50.94667800;7.08448400;2023-06-01T07:56:55;43.10;36.70
17333;DHT22;8784;50.94667800;7.08448400;2023-06-01T07:59:22;43.30;36.40
17333;DHT22;8784;50.94667800;7.08448400;2023-06-01T08:01:49;43.40;36.00
17333;DHT22;8784;50.94667800;7.08448400;2023-06-01T08:04:18;43.30;35.80
17333;DHT22;8784;50.94667800;7.08448400;2023-06-01T08:06:46;43.40;35.80
17333;DHT22;8784;50.94667800;7.08448400;2023-06-01T08:09:13;43.50;35.40
17333;DHT22;8784;50.94667800;7.08448400;2023-06-01T08:11:40;43.60;35.10
17333;DHT22;8784;50.94667800;7.08448400;2023-06-01T08:14:07;43.70;35.00
17333;DHT22;8784;50.94667800;7.08448400;2023-06-01T08:16:35;43.90;34.60
17333;DHT22;8784;50.94667800;7.08448400;2023-06-01T08:19:02;43.90;34.20
17333;DHT22;8784;50.94667800;7.08448400;2023-06-01T08:21:30;43.90;34.20
17333;DHT22;8784;50.94667800;7.08448400;2023-06-01T08:23:57;44.10;34.10
17333;DHT22;8784;50.94667800;7.08448400;2023-06-01T08:26:24;44.50;34.00
17333;DHT22;8784;50.94667800;7.08448400;2023-06-01T08:28:51;44.70;33.40
17333;DHT22;8784;50.94667800;7.08448400;2023-06-01T08:31:19;44.90;33.20
17333;DHT22;8784;50.94667800;7.08448400;2023-06-01T08:33:46;44.80;33.00
17333;DHT22;8784;50.94667800;7.08448400;2023-06-01T08:36:14;44.80;32.80
17333;DHT22;8784;50.94667800;7.08448400;2023-06-01T08:38:43;44.80;32.60
17333;DHT22;8784;50.94667800;7.08448400;2023-06-01T08:41:18;44.80;32.70
17333;DHT22;8784;50.94667800;7.08448400;2023-06-01T08:43:53;45.00;32.60
17333;DHT22;8784;50.94667800;7.08448400;2023-06-01T08:46:21;45.20;32.10
17333;DHT22;8784;50.94667800;7.08448400;2023-06-01T08:48:52;45.00;32.20
17333;DHT22;8784;50.94667800;7.08448400;2023-06-01T08:51:20;45.00;31.90
17333;DHT22;8784;50.94667800;7.08448400;2023-06-01T08:53:51;45.20;32.10
17333;DHT22;8784;50.94667800;7.08448400;2023-06-01T08:56:19;45.30;31.80
17333;DHT22;8784;50.94667800;7.08448400;2023-06-01T08:58:47;45.30;32.00
17333;DHT22;8784;50.94667800;7.08448400;2023-06-01T09:01:18;45.30;32.50
17333;DHT22;8784;50.94667800;7.08448400;2023-06-01T09:03:47;45.30;32.00
17333;DHT22;8784;50.94667800;7.08448400;2023-06-01T09:06:16;45.40;32.10
17333;DHT22;8784;50.94667800;7.08448400;2023-06-01T09:08:44;45.40;31.90
17333;DHT22;8784;50.94667800;7.08448400;2023-06-01T09:11:13;45.50;31.60
17333;DHT22;8784;50.94667800;7.08448400;2023-06-01T09:13:40;45.50;31.60
17333;DHT22;8784;50.94667800;7.08448400;2023-06-01T09:16:08;45.80;31.40
17333;DHT22;8784;50.94667800;7.08448400;2023-06-01T09:18:35;45.80;31.00
17333;DHT22;8784;50.94667800;7.08448400;2023-06-01T09:21:12;45.50;31.30
17333;DHT22;8784;50.94667800;7.08448400;2023-06-01T09:23:41;45.30;31.20
17333;DHT22;8784;50.94667800;7.08448400;2023-06-01T09:26:10;45.20;31.00
17333;DHT22;8784;50.94667800;7.08448400;2023-06-01T09:28:55;44.50;31.40
17333;DHT22;8784;50.94667800;7.08448400;2023-06-01T09:31:40;43.80;31.70
17333;DHT22;8784;50.94667800;7.08448400;2023-06-01T09:34:07;42.90;32.20
17333;DHT22;8784;50.94667800;7.08448400;2023-06-01T09:36:36;42.00;33.30
17333;DHT22;8784;50.94667800;7.08448400;2023-06-01T09:39:04;41.20;33.80
17333;DHT22;8784;50.94667800;7.08448400;2023-06-01T09:41:55;40.50;34.10
17333;DHT22;8784;50.94667800;7.08448400;2023-06-01T09:44:27;39.70;33.90
17333;DHT22;8784;50.94667800;7.08448400;2023-06-01T09:46:55;39.30;35.20
17333;DHT22;8784;50.94667800;7.08448400;2023-06-01T09:49:25;38.90;35.10
17333;DHT22;8784;50.94667800;7.08448400;2023-06-01T09:51:53;38.50;35.60
17333;DHT22;8784;50.94667800;7.08448400;2023-06-01T09:54:27;38.20;36.10
17333;DHT22;8784;50.94667800;7.08448400;2023-06-01T09:56:54;38.00;36.10
17333;DHT22;8784;50.94667800;7.08448400;2023-06-01T09:59:22;37.90;36.20
17333;DHT22;8784;50.94667800;7.08448400;2023-06-01T10:01:52;37.80;36.20
17333;DHT22;8784;50.94667800;7.08448400;2023-06-01T10:04:23;37.50;35.80
17333;DHT22;8784;50.94667800;7.08448400;2023-06-01T10:06:51;37.10;36.20
17333;DHT22;8784;50.94667800;7.08448400;2023-06-01T10:09:20;37.00;36.60
17333;DHT22;8784;50.94667800;7.08448400;2023-06-01T10:11:48;37.00;36.60
17333;DHT22;8784;50.94667800;7.08448400;2023-06-01T10:14:16;37.00;36.40
17333;DHT22;8784;50.94667800;7.08448400;2023-06-01T10:16:43;36.90;36.50
17333;DHT22;8784;50.94667800;7.08448400;2023-06-01T10:19:12;36.80;36.70
17333;DHT22;8784;50.94667800;7.08448400;2023-06-01T10:21:39;36.80;36.30
17333;DHT22;8784;50.94667800;7.08448400;2023-06-01T10:24:08;36.70;36.30
17333;DHT22;8784;50.94667800;7.08448400;2023-06-01T10:26:40;36.50;36.40
17333;DHT22;8784;50.94667800;7.08448400;2023-06-01T10:29:09;36.30;36.70
17333;DHT22;8784;50.94667800;7.08448400;2023-06-01T10:31:37;36.20;36.50
17333;DHT22;8784;50.94667800;7.08448400;2023-06-01T10:34:07;36.20;36.70
17333;DHT22;8784;50.94667800;7.08448400;2023-06-01T10:37:17;36.30;36.40
17333;DHT22;8784;50.94667800;7.08448400;2023-06-01T10:39:44;36.20;36.00
17333;DHT22;8784;50.94667800;7.08448400;2023-06-01T10:45:36;36.00;36.10
17333;DHT22;8784;50.94667800;7.08448400;2023-06-01T10:48:05;35.80;36.40
17333;DHT22;8784;50.94667800;7.08448400;2023-06-01T10:50:33;35.60;36.20
17333;DHT22;8784;50.94667800;7.08448400;2023-06-01T10:53:27;35.40;36.70
17333;DHT22;8784;50.94667800;7.08448400;2023-06-01T10:56:20;34.90;37.10
17333;DHT22;8784;50.94667800;7.08448400;2023-06-01T10:58:50;35.00;37.20
17333;DHT22;8784;50.94667800;7.08448400;2023-06-01T11:01:37;34.90;37.20
17333;DHT22;8784;50.94667800;7.08448400;2023-06-01T11:04:04;34.70;37.70
17333;DHT22;8784;50.94667800;7.08448400;2023-06-01T11:06:33;34.50;38.00
17333;DHT22;8784;50.94667800;7.08448400;2023-06-01T11:09:03;34.40;37.90
17333;DHT22;8784;50.94667800;7.08448400;2023-06-01T11:11:59;33.90;37.70
17333;DHT22;8784;50.94667800;7.08448400;2023-06-01T11:14:28;33.50;38.00
17333;DHT22;8784;50.94667800;7.08448400;2023-06-01T11:17:25;33.30;38.60
17333;DHT22;8784;50.94667800;7.08448400;2023-06-01T11:19:57;32.50;38.20
17333;DHT22;8784;50.94667800;7.08448400;2023-06-01T11:22:27;32.00;38.90
17333;DHT22;8784;50.94667800;7.08448400;2023-06-01T11:25:04;31.60;39.40
17333;DHT22;8784;50.94667800;7.08448400;2023-06-01T11:27:33;31.30;39.60
17333;DHT22;8784;50.94667800;7.08448400;2023-06-01T11:30:02;30.90;39.90
17333;DHT22;8784;50.94667800;7.08448400;2023-06-01T11:32:30;30.80;40.30
17333;DHT22;8784;50.94667800;7.08448400;2023-06-01T11:34:58;30.40;40.60
17333;DHT22;8784;50.94667800;7.08448400;2023-06-01T11:37:25;29.90;40.80
17333;DHT22;8784;50.94667800;7.08448400;2023-06-01T11:40:06;29.50;41.50
17333;DHT22;8784;50.94667800;7.08448400;2023-06-01T11:42:36;29.30;41.90
17333;DHT22;8784;50.94667800;7.08448400;2023-06-01T11:45:03;29.10;42.20
17333;DHT22;8784;50.94667800;7.08448400;2023-06-01T11:47:31;29.00;42.30
17333;DHT22;8784;50.94667800;7.08448400;2023-06-01T11:49:58;29.00;42.60
17333;DHT22;8784;50.94667800;7.08448400;2023-06-01T11:52:26;28.90;42.50
17333;DHT22;8784;50.94667800;7.08448400;2023-06-01T11:54:53;28.90;42.60
17333;DHT22;8784;50.94667800;7.08448400;2023-06-01T11:57:21;28.70;42.70
17333;DHT22;8784;50.94667800;7.08448400;2023-06-01T11:59:49;28.60;43.00
17333;DHT22;8784;50.94667800;7.08448400;2023-06-01T12:02:17;28.50;43.00
17333;DHT22;8784;50.94667800;7.08448400;2023-06-01T12:04:54;28.40;42.90
17333;DHT22;8784;50.94667800;7.08448400;2023-06-01T12:07:23;28.30;42.70
17333;DHT22;8784;50.94667800;7.08448400;2023-06-01T12:09:51;28.10;42.80
17333;DHT22;8784;50.94667800;7.08448400;2023-06-01T12:12:21;27.80;43.20
17333;DHT22;8784;50.94667800;7.08448400;2023-06-01T12:14:49;27.90;43.50
17333;DHT22;8784;50.94667800;7.08448400;2023-06-01T12:17:16;27.90;43.60
17333;DHT22;8784;50.94667800;7.08448400;2023-06-01T12:19:45;27.90;43.60
17333;DHT22;8784;50.94667800;7.08448400;2023-06-01T12:22:13;27.90;43.70
17333;DHT22;8784;50.94667800;7.08448400;2023-06-01T12:24:41;27.90;43.80
17333;DHT22;8784;50.94667800;7.08448400;2023-06-01T12:27:13;27.90;43.30
17333;DHT22;8784;50.94667800;7.08448400;2023-06-01T12:29:43;27.60;43.10
17333;DHT22;8784;50.94667800;7.08448400;2023-06-01T12:32:11;27.50;43.60
17333;DHT22;8784;50.94667800;7.08448400;2023-06-01T12:34:42;27.50;43.80
17333;DHT22;8784;50.94667800;7.08448400;2023-06-01T12:37:14;27.40;43.80
17333;DHT22;8784;50.94667800;7.08448400;2023-06-01T12:39:41;27.40;44.10
17333;DHT22;8784;50.94667800;7.08448400;2023-06-01T12:42:10;27.50;44.20
17333;DHT22;8784;50.94667800;7.08448400;2023-06-01T12:44:37;27.50;43.80
17333;DHT22;8784;50.94667800;7.08448400;2023-06-01T12:47:08;27.50;44.10
17333;DHT22;8784;50.94667800;7.08448400;2023-06-01T12:49:35;27.50;44.00
17333;DHT22;8784;50.94667800;7.08448400;2023-06-01T12:52:04;27.40;44.20
17333;DHT22;8784;50.94667800;7.08448400;2023-06-01T12:54:31;27.40;44.50
17333;DHT22;8784;50.94667800;7.08448400;2023-06-01T12:56:58;27.30;44.30
17333;DHT22;8784;50.94667800;7.08448400;2023-06-01T12:59:25;27.30;44.30
17333;DHT22;8784;50.94667800;7.08448400;2023-06-01T13:01:52;27.40;44.60
17333;DHT22;8784;50.94667800;7.08448400;2023-06-01T13:04:21;27.40;44.20
17333;DHT22;8784;50.94667800;7.08448400;2023-06-01T13:06:49;27.40;44.30
17333;DHT22;8784;50.94667800;7.08448400;2023-06-01T13:09:16;27.30;44.30
17333;DHT22;8784;50.94667800;7.08448400;2023-06-01T13:11:43;27.20;44.50
17333;DHT22;8784;50.94667800;7.08448400;2023-06-01T13:14:10;27.10;44.50
17333;DHT22;8784;50.94667800;7.08448400;2023-06-01T13:16:37;27.10;44.50
17333;DHT22;8784;50.94667800;7.08448400;2023-06-01T13:19:05;27.10;44.70
17333;DHT22;8784;50.94667800;7.08448400;2023-06-01T13:21:34;27.20;45.40
17333;DHT22;8784;50.94667800;7.08448400;2023-06-01T13:24:01;27.30;44.60
17333;DHT22;8784;50.94667800;7.08448400;2023-06-01T13:26:29;27.30;44.30
17333;DHT22;8784;50.94667800;7.08448400;2023-06-01T13:28:55;27.20;44.10
17333;DHT22;8784;50.94667800;7.08448400;2023-06-01T13:31:22;27.20;44.30
17333;DHT22;8784;50.94667800;7.08448400;2023-06-01T13:33:49;27.20;44.50
17333;DHT22;8784;50.94667800;7.08448400;2023-06-01T13:36:16;27.10;44.70
17333;DHT22;8784;50.94667800;7.08448400;2023-06-01T13:38:45;27.10;44.70
17333;DHT22;8784;50.94667800;7.08448400;2023-06-01T13:41:12;27.10;45.00
17333;DHT22;8784;50.94667800;7.08448400;2023-06-01T13:43:39;27.10;45.10
17333;DHT22;8784;50.94667800;7.08448400;2023-06-01T13:46:06;27.10;44.90
17333;DHT22;8784;50.94667800;7.08448400;2023-06-01T13:48:35;27.10;44.90